sensor_id;sensor_type;location;lat;lon;timestamp;P1;durP1;ratioP1;P2;durP2;ratioP2
24301;SDS011;12421;49.732;20.078;2023-07-30T00:03:23;9.30;;;4.50;;
24301;SDS011;12421;49.732;20.078;2023-07-30T00:13:28;6.90;;;3.20;;
24301;SDS011;12421;49.732;20.078;2023-07-30T00:23:31;9.30;;;3.70;;
24301;SDS011;12421;49.732;20.078;2023-07-30T00:33:35;10.80;;;3.30;;
24301;SDS011;12421;49.732;20.078;2023-07-30T00:43:40;5.00;;;3.10;;
24301;SDS011;12421;49.732;20.078;2023-07-30T00:53:43;6.30;;;3.20;;
24301;SDS011;12421;49.732;20.078;2023-07-30T01:03:54;11.50;;;3.00;;
24301;SDS011;12421;49.732;20.078;2023-07-30T01:13:57;7.30;;;3.30;;
24301;SDS011;12421;49.732;20.078;2023-07-30T01:24:03;7.50;;;3.20;;
24301;SDS011;12421;49.732;20.078;2023-07-30T01:34:07;11.10;;;4.40;;
24301;SDS011;12421;49.732;20.078;2023-07-30T01:44:13;7.80;;;3.30;;
24301;SDS011;12421;49.732;20.078;2023-07-30T01:54:17;7.40;;;2.90;;
24301;SDS011;12421;49.732;20.078;2023-07-30T02:04:20;5.90;;;3.00;;
24301;SDS011;12421;49.732;20.078;2023-07-30T02:14:24;7.40;;;3.20;;
24301;SDS011;12421;49.732;20.078;2023-07-30T02:24:28;6.00;;;2.60;;
24301;SDS011;12421;49.732;20.078;2023-07-30T02:34:32;4.10;;;2.90;;
24301;SDS011;12421;49.732;20.078;2023-07-30T02:44:36;6.90;;;2.40;;
24301;SDS011;12421;49.732;20.078;2023-07-30T02:54:40;3.60;;;2.00;;
24301;SDS011;12421;49.732;20.078;2023-07-30T03:04:44;4.30;;;2.10;;
24301;SDS011;12421;49.732;20.078;2023-07-30T03:14:48;3.50;;;2.10;;
24301;SDS011;12421;49.732;20.078;2023-07-30T03:24:52;3.50;;;2.10;;
24301;SDS011;12421;49.732;20.078;2023-07-30T03:34:57;4.10;;;1.80;;
24301;SDS011;12421;49.732;20.078;2023-07-30T03:45:01;9.20;;;2.10;;
24301;SDS011;12421;49.732;20.078;2023-07-30T03:55:04;6.70;;;2.00;;
24301;SDS011;12421;49.732;20.078;2023-07-30T04:05:07;7.20;;;1.90;;
24301;SDS011;12421;49.732;20.078;2023-07-30T04:15:11;6.50;;;1.60;;
24301;SDS011;12421;49.732;20.078;2023-07-30T04:25:15;4.80;;;1.80;;
24301;SDS011;12421;49.732;20.078;2023-07-30T04:35:19;3.60;;;1.60;;
24301;SDS011;12421;49.732;20.078;2023-07-30T04:45:23;4.00;;;1.90;;
24301;SDS011;12421;49.732;20.078;2023-07-30T04:55:28;5.30;;;1.90;;
24301;SDS011;12421;49.732;20.078;2023-07-30T05:05:32;10.20;;;3.00;;
24301;SDS011;12421;49.732;20.078;2023-07-30T05:15:36;6.30;;;2.30;;
24301;SDS011;12421;49.732;20.078;2023-07-30T05:25:40;3.60;;;1.90;;
24301;SDS011;12421;49.732;20.078;2023-07-30T05:35:44;3.60;;;1.80;;
24301;SDS011;12421;49.732;20.078;2023-07-30T05:45:49;3.50;;;1.90;;
24301;SDS011;12421;49.732;20.078;2023-07-30T05:55:53;3.80;;;1.80;;
24301;SDS011;12421;49.732;20.078;2023-07-30T06:05:57;2.40;;;1.50;;
24301;SDS011;12421;49.732;20.078;2023-07-30T06:16:01;3.00;;;1.70;;
24301;SDS011;12421;49.732;20.078;2023-07-30T06:26:08;2.90;;;1.90;;
24301;SDS011;12421;49.732;20.078;2023-07-30T06:36:20;3.20;;;1.90;;
24301;SDS011;12421;49.732;20.078;2023-07-30T06:46:47;3.20;;;1.40;;
24301;SDS011;12421;49.732;20.078;2023-07-30T06:56:50;5.50;;;1.70;;
24301;SDS011;12421;49.732;20.078;2023-07-30T07:06:54;2.30;;;1.00;;
24301;SDS011;12421;49.732;20.078;2023-07-30T07:16:57;3.10;;;1.40;;
24301;SDS011;12421;49.732;20.078;2023-07-30T07:27:01;1.80;;;1.10;;
24301;SDS011;12421;49.732;20.078;2023-07-30T07:37:05;2.50;;;0.90;;
24301;SDS011;12421;49.732;20.078;2023-07-30T07:47:09;2.90;;;1.10;;
24301;SDS011;12421;49.732;20.078;2023-07-30T07:57:13;1.90;;;1.10;;
24301;SDS011;12421;49.732;20.078;2023-07-30T08:07:18;3.10;;;1.10;;
24301;SDS011;12421;49.732;20.078;2023-07-30T08:27:26;1.60;;;0.70;;
24301;SDS011;12421;49.732;20.078;2023-07-30T08:37:29;3.20;;;0.90;;
24301;SDS011;12421;49.732;20.078;2023-07-30T08:47:33;3.00;;;0.90;;
24301;SDS011;12421;49.732;20.078;2023-07-30T08:57:38;2.10;;;0.80;;
24301;SDS011;12421;49.732;20.078;2023-07-30T09:07:46;1.90;;;0.80;;
24301;SDS011;12421;49.732;20.078;2023-07-30T09:17:54;2.80;;;0.90;;
24301;SDS011;12421;49.732;20.078;2023-07-30T09:27:59;2.50;;;0.90;;
24301;SDS011;12421;49.732;20.078;2023-07-30T09:38:06;3.50;;;1.00;;
24301;SDS011;12421;49.732;20.078;2023-07-30T09:48:10;1.50;;;0.70;;
24301;SDS011;12421;49.732;20.078;2023-07-30T09:58:14;4.80;;;0.80;;
24301;SDS011;12421;49.732;20.078;2023-07-30T10:08:19;2.00;;;0.80;;
24301;SDS011;12421;49.732;20.078;2023-07-30T10:18:33;1.30;;;0.60;;
24301;SDS011;12421;49.732;20.078;2023-07-30T10:28:41;1.80;;;0.80;;
24301;SDS011;12421;49.732;20.078;2023-07-30T10:38:47;1.70;;;0.80;;
24301;SDS011;12421;49.732;20.078;2023-07-30T10:48:51;1.30;;;0.60;;
24301;SDS011;12421;49.732;20.078;2023-07-30T10:58:56;2.00;;;0.80;;
24301;SDS011;12421;49.732;20.078;2023-07-30T11:09:00;2.10;;;0.90;;
24301;SDS011;12421;49.732;20.078;2023-07-30T11:19:07;1.50;;;0.90;;
24301;SDS011;12421;49.732;20.078;2023-07-30T11:29:19;1.90;;;0.90;;
24301;SDS011;12421;49.732;20.078;2023-07-30T11:39:24;2.70;;;0.90;;
24301;SDS011;12421;49.732;20.078;2023-07-30T11:49:28;5.30;;;1.10;;
24301;SDS011;12421;49.732;20.078;2023-07-30T11:59:37;2.00;;;0.90;;
24301;SDS011;12421;49.732;20.078;2023-07-30T12:09:47;2.00;;;0.90;;
24301;SDS011;12421;49.732;20.078;2023-07-30T12:19:51;2.00;;;0.90;;
24301;SDS011;12421;49.732;20.078;2023-07-30T12:29:54;1.00;;;0.50;;
24301;SDS011;12421;49.732;20.078;2023-07-30T12:39:58;1.60;;;1.00;;
24301;SDS011;12421;49.732;20.078;2023-07-30T12:50:02;2.20;;;1.00;;
24301;SDS011;12421;49.732;20.078;2023-07-30T13:00:14;2.40;;;0.80;;
24301;SDS011;12421;49.732;20.078;2023-07-30T13:10:23;2.50;;;0.70;;
24301;SDS011;12421;49.732;20.078;2023-07-30T13:20:48;1.30;;;0.70;;
24301;SDS011;12421;49.732;20.078;2023-07-30T13:30:54;2.20;;;0.90;;
24301;SDS011;12421;49.732;20.078;2023-07-30T13:41:21;1.60;;;0.90;;
24301;SDS011;12421;49.732;20.078;2023-07-30T13:51:27;3.00;;;1.10;;
24301;SDS011;12421;49.732;20.078;2023-07-30T14:01:54;1.80;;;0.90;;
24301;SDS011;12421;49.732;20.078;2023-07-30T14:12:11;1.90;;;1.00;;
24301;SDS011;12421;49.732;20.078;2023-07-30T14:22:17;1.80;;;1.10;;
24301;SDS011;12421;49.732;20.078;2023-07-30T14:32:23;2.60;;;1.00;;
24301;SDS011;12421;49.732;20.078;2023-07-30T14:42:27;2.80;;;0.90;;
24301;SDS011;12421;49.732;20.078;2023-07-30T14:52:34;4.50;;;1.10;;
24301;SDS011;12421;49.732;20.078;2023-07-30T15:02:40;1.60;;;0.80;;
24301;SDS011;12421;49.732;20.078;2023-07-30T15:12:43;2.40;;;1.00;;
24301;SDS011;12421;49.732;20.078;2023-07-30T15:22:47;3.10;;;1.00;;
24301;SDS011;12421;49.732;20.078;2023-07-30T15:32:51;2.90;;;1.20;;
24301;SDS011;12421;49.732;20.078;2023-07-30T15:42:55;2.00;;;1.10;;
24301;SDS011;12421;49.732;20.078;2023-07-30T15:52:59;3.50;;;1.10;;
24301;SDS011;12421;49.732;20.078;2023-07-30T16:03:03;3.60;;;1.20;;
24301;SDS011;12421;49.732;20.078;2023-07-30T16:13:10;3.10;;;1.20;;
24301;SDS011;12421;49.732;20.078;2023-07-30T16:23:14;3.70;;;1.40;;
24301;SDS011;12421;49.732;20.078;2023-07-30T16:33:18;4.00;;;1.90;;
24301;SDS011;12421;49.732;20.078;2023-07-30T16:43:22;3.10;;;1.30;;
24301;SDS011;12421;49.732;20.078;2023-07-30T16:53:27;5.30;;;1.50;;
24301;SDS011;12421;49.732;20.078;2023-07-30T17:03:31;3.30;;;1.60;;
24301;SDS011;12421;49.732;20.078;2023-07-30T17:24:08;5.70;;;1.70;;
24301;SDS011;12421;49.732;20.078;2023-07-30T17:34:11;3.90;;;1.80;;
24301;SDS011;12421;49.732;20.078;2023-07-30T17:44:26;5.70;;;1.70;;
24301;SDS011;12421;49.732;20.078;2023-07-30T17:54:34;4.20;;;1.70;;
24301;SDS011;12421;49.732;20.078;2023-07-30T18:04:49;4.40;;;1.90;;
24301;SDS011;12421;49.732;20.078;2023-07-30T18:14:57;3.60;;;1.90;;
24301;SDS011;12421;49.732;20.078;2023-07-30T18:25:06;4.40;;;1.80;;
24301;SDS011;12421;49.732;20.078;2023-07-30T18:35:19;8.20;;;2.90;;
24301;SDS011;12421;49.732;20.078;2023-07-30T18:45:34;5.80;;;3.20;;
24301;SDS011;12421;49.732;20.078;2023-07-30T18:55:39;5.60;;;3.50;;
24301;SDS011;12421;49.732;20.078;2023-07-30T19:05:48;10.00;;;4.60;;
24301;SDS011;12421;49.732;20.078;2023-07-30T19:15:55;6.60;;;3.60;;
24301;SDS011;12421;49.732;20.078;2023-07-30T19:26:02;13.00;;;5.40;;
24301;SDS011;12421;49.732;20.078;2023-07-30T19:36:07;12.10;;;6.70;;
24301;SDS011;12421;49.732;20.078;2023-07-30T19:46:15;10.00;;;4.70;;
24301;SDS011;12421;49.732;20.078;2023-07-30T19:56:21;11.00;;;3.90;;
24301;SDS011;12421;49.732;20.078;2023-07-30T20:06:26;9.70;;;3.20;;
24301;SDS011;12421;49.732;20.078;2023-07-30T20:16:29;6.40;;;3.80;;
24301;SDS011;12421;49.732;20.078;2023-07-30T20:26:34;11.70;;;3.90;;
24301;SDS011;12421;49.732;20.078;2023-07-30T20:36:37;10.30;;;3.40;;
24301;SDS011;12421;49.732;20.078;2023-07-30T20:46:41;7.00;;;3.50;;
24301;SDS011;12421;49.732;20.078;2023-07-30T20:56:45;8.10;;;3.80;;
24301;SDS011;12421;49.732;20.078;2023-07-30T21:06:49;7.50;;;3.50;;
24301;SDS011;12421;49.732;20.078;2023-07-30T21:16:53;8.00;;;3.80;;
24301;SDS011;12421;49.732;20.078;2023-07-30T21:26:57;6.70;;;3.60;;
24301;SDS011;12421;49.732;20.078;2023-07-30T21:37:01;11.30;;;5.20;;
24301;SDS011;12421;49.732;20.078;2023-07-30T21:47:05;6.40;;;3.30;;
24301;SDS011;12421;49.732;20.078;2023-07-30T21:57:08;5.90;;;3.00;;
24301;SDS011;12421;49.732;20.078;2023-07-30T22:07:12;7.90;;;2.90;;
24301;SDS011;12421;49.732;20.078;2023-07-30T22:17:17;6.60;;;3.10;;
24301;SDS011;12421;49.732;20.078;2023-07-30T22:27:21;3.70;;;2.40;;
24301;SDS011;12421;49.732;20.078;2023-07-30T22:37:27;7.80;;;3.10;;
24301;SDS011;12421;49.732;20.078;2023-07-30T22:47:34;7.10;;;3.60;;
24301;SDS011;12421;49.732;20.078;2023-07-30T22:57:47;7.40;;;3.10;;
24301;SDS011;12421;49.732;20.078;2023-07-30T23:07:52;6.80;;;3.50;;
24301;SDS011;12421;49.732;20.078;2023-07-30T23:17:59;5.00;;;2.80;;
24301;SDS011;12421;49.732;20.078;2023-07-30T23:28:02;9.70;;;3.80;;
24301;SDS011;12421;49.732;20.078;2023-07-30T23:38:07;5.40;;;3.60;;
24301;SDS011;12421;49.732;20.078;2023-07-30T23:48:10;5.80;;;3.00;;
24301;SDS011;12421;49.732;20.078;2023-07-30T23:58:14;12.80;;;3.00;;
